createdAt,value
2023-04-01T00:00:23.530Z,99173.56
2023-04-01T00:02:53.061Z,99183.84
2023-04-01T00:05:21.158Z,99219.91
2023-04-01T00:07:49.268Z,99204.25
2023-04-01T00:10:17.104Z,99202.13
2023-04-01T00:12:44.872Z,99210.88
2023-04-01T00:15:13.860Z,99209.72
2023-04-01T00:17:42.003Z,99220.59
2023-04-01T00:20:12.497Z,99218.75
2023-04-01T00:22:40.444Z,99202.13
2023-04-01T00:25:09.472Z,99196.34
2023-04-01T00:27:37.233Z,99188.06
2023-04-01T00:30:06.618Z,99195.84
2023-04-01T00:32:34.568Z,99201.31
2023-04-01T00:35:02.379Z,99205.41
2023-04-01T00:37:31.945Z,99208.06
2023-04-01T00:40:00.159Z,99207.22
2023-04-01T00:42:27.958Z,99205.44
2023-04-01T00:44:56.894Z,99211.84
2023-04-01T00:47:27.691Z,99200.13
2023-04-01T00:49:56.934Z,99208.22
2023-04-01T00:52:27.289Z,99225.84
2023-04-01T00:54:59.172Z,99231.78
2023-04-01T00:57:33.053Z,99227.69
2023-04-01T01:00:01.294Z,99217.41
2023-04-01T01:02:29.309Z,99195.97
2023-04-01T01:04:57.076Z,99209.88
2023-04-01T01:07:35.429Z,99216.13
2023-04-01T01:10:13.480Z,99225.78
2023-04-01T01:12:46.866Z,99235.88
2023-04-01T01:15:22.382Z,99228.66
2023-04-01T01:18:03.310Z,99232.41
2023-04-01T01:21:21.876Z,99228.78
2023-04-01T01:24:20.125Z,99259.44
2023-04-01T01:27:01.612Z,99246.91
2023-04-01T01:30:06.374Z,99245.28
2023-04-01T01:32:52.070Z,99221.91
2023-04-01T01:35:26.080Z,99227.97
2023-04-01T01:37:57.769Z,99233.91
2023-04-01T01:40:27.578Z,99235.25
2023-04-01T01:43:02.082Z,99233.59
2023-04-01T01:45:32.121Z,99223.22
2023-04-01T08:04:20.002Z,99675.69
2023-04-01T08:06:53.072Z,99680.66
2023-04-01T08:09:30.337Z,99691.66
2023-04-01T08:12:11.191Z,99690.47
2023-04-01T08:14:50.282Z,99686.53
2023-04-01T08:17:27.029Z,99700.31
2023-04-01T08:20:10.459Z,99692.63
2023-04-01T08:22:42.634Z,99697.22
2023-04-01T08:25:18.885Z,99702.66
2023-04-01T08:27:49.587Z,99715.66
2023-04-01T08:30:21.074Z,99719.28
2023-04-01T08:32:55.531Z,99722.13
2023-04-01T08:35:32.609Z,99726.22
2023-04-01T08:38:07.667Z,99735.16
2023-04-01T08:40:57.246Z,99732.72
2023-04-01T08:43:40.999Z,99735.38
2023-04-01T08:46:21.823Z,99749.78
2023-04-01T08:49:11.622Z,99758.03
2023-04-01T08:52:06.042Z,99769.25
2023-04-01T08:54:50.781Z,99756.00
2023-04-01T08:57:31.018Z,99772.34
2023-04-01T09:00:09.704Z,99767.78
2023-04-01T09:03:04.928Z,99776.41
2023-04-01T09:06:15.403Z,99777.66
2023-04-01T09:09:02.364Z,99794.63
2023-04-01T09:11:41.077Z,99789.63
2023-04-01T09:14:51.344Z,99835.03
2023-04-01T09:17:54.729Z,99822.47
2023-04-01T09:20:49.829Z,99808.19
2023-04-01T09:23:41.087Z,99796.97
2023-04-01T09:26:23.559Z,99823.63
2023-04-01T09:29:01.893Z,99825.81
2023-04-01T09:31:52.743Z,99848.34
2023-04-01T09:34:43.068Z,99853.72
2023-04-01T09:37:22.604Z,99841.53
2023-04-01T09:40:10.320Z,99871.44
2023-04-01T09:42:51.150Z,99868.84
2023-04-01T09:45:36.868Z,99859.94
2023-04-01T09:48:17.006Z,99867.09
2023-04-01T09:50:52.726Z,99874.94
2023-04-01T09:53:36.131Z,99862.19
2023-04-01T09:56:33.818Z,99870.09
2023-04-01T09:59:44.284Z,99879.72
2023-04-01T10:02:53.566Z,99875.81
2023-04-01T10:06:08.818Z,99906.94
2023-04-01T10:09:16.015Z,99920.19
2023-04-01T10:12:09.563Z,99908.22
2023-04-01T10:15:02.863Z,99899.09
2023-04-01T10:17:50.665Z,99917.50
2023-04-01T10:20:41.205Z,99921.53
2023-04-01T10:23:42.774Z,99938.19
2023-04-01T10:26:44.966Z,99928.50
2023-04-01T10:29:50.214Z,99920.09
2023-04-01T10:32:57.681Z,99904.72
2023-04-01T10:35:49.297Z,99895.44
2023-04-01T10:38:44.328Z,99920.94
2023-04-01T10:41:48.259Z,99917.75
2023-04-01T10:44:45.367Z,99906.66
2023-04-01T10:47:39.493Z,99919.97
2023-04-01T10:50:26.161Z,99928.78
2023-04-01T10:53:18.479Z,99946.47
2023-04-01T10:56:22.157Z,99966.88
2023-04-01T10:59:37.582Z,99990.75
2023-04-01T11:02:46.746Z,99969.69
2023-04-01T11:06:00.350Z,99971.47
2023-04-01T11:09:06.701Z,99992.00
2023-04-01T11:12:06.204Z,99969.81
2023-04-01T11:15:07.471Z,99994.22
2023-04-01T11:18:00.269Z,99993.88
2023-04-01T11:20:59.063Z,100005.16
2023-04-01T11:24:04.382Z,99944.19
2023-04-01T11:26:42.049Z,99945.03
2023-04-01T11:29:44.387Z,99966.03
2023-04-01T11:32:35.185Z,100035.19
2023-04-01T11:35:27.860Z,100040.47
2023-04-01T11:38:05.417Z,100065.56
2023-04-01T11:40:41.206Z,100073.66
2023-04-01T11:43:26.125Z,100083.91
2023-04-01T11:46:07.431Z,100085.22
2023-04-01T11:49:00.465Z,100078.06
2023-04-01T11:51:42.646Z,100114.59
2023-04-01T11:54:22.389Z,100113.66
2023-04-01T11:57:09.011Z,100141.44
2023-04-01T11:59:59.953Z,100159.19
2023-04-01T12:02:36.952Z,100174.03
2023-04-01T12:05:26.013Z,100173.63
2023-04-01T12:08:06.206Z,100192.75
2023-04-01T12:10:42.104Z,100201.59
2023-04-01T12:13:23.275Z,100251.41
2023-04-01T12:16:04.733Z,100264.75
2023-04-01T12:18:41.196Z,100258.91
2023-04-01T12:21:23.651Z,100278.97
2023-04-01T12:24:15.497Z,100278.97
2023-04-01T12:26:56.196Z,100295.00
2023-04-01T12:29:51.483Z,100321.78
2023-04-01T12:32:27.112Z,100294.19
2023-04-01T12:35:15.210Z,100308.19
2023-04-01T12:37:52.678Z,100309.25
2023-04-01T12:40:41.661Z,100311.00
2023-04-01T12:43:28.190Z,100324.34
2023-04-01T12:46:03.084Z,100339.16
2023-04-01T12:48:49.298Z,100350.63
2023-04-01T12:51:39.113Z,100338.41
2023-04-01T12:54:22.419Z,100333.31
2023-04-01T12:57:05.400Z,100355.41
2023-04-01T12:59:52.235Z,100354.16
2023-04-01T13:02:33.271Z,100377.88
2023-04-01T13:05:27.110Z,100391.78
2023-04-01T13:08:08.216Z,100384.69
2023-04-01T13:10:58.918Z,100396.47
2023-04-01T13:13:42.580Z,100404.38
2023-04-01T13:16:17.210Z,100408.03
2023-04-01T13:18:59.548Z,100449.84
2023-04-01T13:21:50.045Z,100443.47
2023-04-01T13:24:33.232Z,100451.97
2023-04-01T13:27:06.911Z,100461.63
2023-04-01T13:29:41.059Z,100439.28
2023-04-01T13:32:33.277Z,100447.66
2023-04-01T13:35:23.227Z,100471.41
2023-04-01T13:38:05.382Z,100470.22
2023-04-01T13:40:42.757Z,100479.50
2023-04-01T13:43:18.723Z,100496.34
2023-04-01T13:46:23.324Z,100514.78
2023-04-01T13:49:24.300Z,100499.81
2023-04-01T13:52:17.038Z,100504.34
2023-04-01T13:55:01.024Z,100500.34
2023-04-01T13:57:44.873Z,100538.44
2023-04-01T14:00:31.014Z,100550.50
2023-04-01T14:03:16.103Z,100546.78
2023-04-01T14:05:58.385Z,100549.50
2023-04-01T14:08:43.990Z,100559.38
2023-04-01T14:11:22.189Z,100578.31
2023-04-01T14:14:04.054Z,100563.13
2023-04-01T14:17:12.480Z,100585.19
2023-04-01T14:20:09.232Z,100580.56
2023-04-01T14:22:44.953Z,100598.16
2023-04-01T14:25:35.015Z,100580.59
2023-04-01T14:28:14.229Z,100594.59
2023-04-01T14:31:18.129Z,100605.41
2023-04-01T14:33:53.451Z,100613.69
2023-04-01T14:36:50.082Z,100623.50
2023-04-01T14:39:31.436Z,100630.47
2023-04-01T14:42:21.942Z,100628.97
2023-04-01T14:45:14.461Z,100619.31
2023-04-01T14:47:48.465Z,100629.91
2023-04-01T14:50:19.999Z,100636.28
2023-04-01T14:52:59.068Z,100634.59
2023-04-01T14:55:34.713Z,100643.91
2023-04-01T14:58:11.772Z,100662.97
2023-04-01T15:00:56.806Z,100663.66
2023-04-01T15:03:31.729Z,100667.47
2023-04-01T15:06:29.726Z,100671.78
2023-04-01T15:09:06.668Z,100660.06
2023-04-01T15:11:59.289Z,100675.41
2023-04-01T15:14:45.985Z,100668.16
2023-04-01T15:17:37.939Z,100664.56
2023-04-01T15:20:44.053Z,100672.56
2023-04-01T15:23:28.015Z,100692.28
2023-04-01T15:26:18.479Z,100704.84
2023-04-01T15:28:57.658Z,100693.91
2023-04-01T15:31:31.675Z,100707.19
2023-04-01T15:34:19.758Z,100708.25
2023-04-01T15:36:56.778Z,100698.91
2023-04-01T15:39:33.629Z,100716.03
2023-04-01T15:42:21.995Z,100717.34
2023-04-01T15:44:59.987Z,100741.81
2023-04-01T15:47:37.529Z,100725.88
2023-04-01T15:50:38.457Z,100742.84
2023-04-01T15:53:19.722Z,100757.84
2023-04-01T15:55:52.204Z,100753.91
2023-04-01T15:58:35.397Z,100764.09
2023-04-01T16:01:18.417Z,100763.06
2023-04-01T16:03:56.608Z,100768.38
2023-04-01T16:06:37.592Z,100778.88
2023-04-01T16:09:21.892Z,100779.38
2023-04-01T16:11:55.718Z,100785.53
2023-04-01T16:14:35.652Z,100791.69
2023-04-01T16:17:19.715Z,100800.50
2023-04-01T16:19:54.978Z,100807.47
2023-04-01T16:22:28.942Z,100810.06
2023-04-01T16:25:13.716Z,100810.41
2023-04-01T16:27:50.795Z,100804.72
2023-04-01T16:30:39.327Z,100826.47
2023-04-01T16:33:16.051Z,100841.97
2023-04-01T16:35:48.318Z,100841.16
2023-04-01T16:38:24.849Z,100848.38
2023-04-01T16:41:03.129Z,100870.66
2023-04-01T16:43:39.848Z,100877.19
2023-04-01T16:46:29.662Z,100879.28
2023-04-01T16:49:26.787Z,100877.63
2023-04-01T16:51:59.771Z,100900.97
2023-04-01T16:54:37.745Z,100891.25
2023-04-01T16:57:18.835Z,100909.00
2023-04-01T16:59:56.092Z,100913.56
2023-04-01T17:02:28.580Z,100916.56
2023-04-01T17:05:02.586Z,100912.63
2023-04-01T17:07:40.394Z,100931.22
2023-04-01T17:10:39.284Z,100936.53
2023-04-01T17:13:30.618Z,100938.00
2023-04-01T17:16:08.433Z,100944.59
2023-04-01T17:18:50.082Z,100955.22
2023-04-01T17:21:22.726Z,100959.56
2023-04-01T17:23:55.054Z,100976.66
2023-04-01T17:26:33.892Z,100982.41
2023-04-01T17:29:12.826Z,100980.66
2023-04-01T17:31:48.823Z,100999.13
2023-04-01T17:34:39.711Z,101000.81
2023-04-01T17:37:23.670Z,101000.06
2023-04-01T17:40:08.187Z,100991.50
2023-04-01T17:42:44.430Z,100986.72
2023-04-01T17:45:21.653Z,100992.06
2023-04-01T17:48:00.660Z,101010.66
2023-04-01T17:50:46.578Z,101005.81
2023-04-01T17:53:30.682Z,101005.59
2023-04-01T17:56:11.175Z,101021.75
2023-04-01T17:58:47.732Z,101026.44
2023-04-01T18:01:28.516Z,101033.88
2023-04-01T18:04:17.616Z,101035.88
2023-04-01T18:07:10.389Z,101049.13
2023-04-01T18:09:49.622Z,101051.88
2023-04-01T18:12:26.917Z,101057.88
2023-04-01T18:15:10.286Z,101054.09
2023-04-01T18:17:51.791Z,101067.19
2023-04-01T18:20:33.683Z,101090.16
2023-04-01T18:23:08.600Z,101091.97
2023-04-01T18:25:41.742Z,101094.25
2023-04-01T18:28:23.015Z,101103.97
2023-04-01T18:30:56.706Z,101098.38
2023-04-01T18:33:31.302Z,101116.72
2023-04-01T18:36:12.516Z,101111.31
2023-04-01T18:38:47.734Z,101109.56
2023-04-01T18:41:17.478Z,101123.34
2023-04-01T18:43:59.413Z,101117.78
2023-04-01T18:46:36.911Z,101136.88
2023-04-01T18:49:13.991Z,101139.00
2023-04-01T18:51:49.949Z,101141.22
2023-04-01T18:54:27.064Z,101151.78
2023-04-01T18:57:05.956Z,101158.56
2023-04-01T18:59:41.312Z,101163.88
2023-04-01T19:02:20.038Z,101167.13
2023-04-01T19:04:53.017Z,101158.56
2023-04-01T19:07:43.086Z,101172.69
2023-04-01T19:10:22.273Z,101175.53
2023-04-01T19:13:07.637Z,101182.06
2023-04-01T19:15:43.733Z,101193.59
2023-04-01T19:18:33.268Z,101192.09
2023-04-01T19:21:07.393Z,101203.13
2023-04-01T19:24:06.338Z,101201.44
2023-04-01T19:26:40.320Z,101207.66
2023-04-01T19:29:21.589Z,101213.72
2023-04-01T19:32:01.236Z,101217.59
2023-04-01T19:34:44.474Z,101220.38
2023-04-01T19:37:22.601Z,101225.31
2023-04-01T19:39:59.196Z,101219.28
2023-04-01T19:42:38.631Z,101232.66
2023-04-01T19:45:23.739Z,101249.41
2023-04-01T19:48:02.503Z,101237.66
2023-04-01T19:50:38.008Z,101258.50
2023-04-01T19:53:19.084Z,101255.03
2023-04-01T19:55:52.652Z,101258.88
2023-04-01T19:58:29.709Z,101262.72
2023-04-01T20:01:00.934Z,101257.94
2023-04-01T20:03:39.631Z,101265.06
2023-04-01T20:06:17.875Z,101268.31
2023-04-01T20:09:00.487Z,101258.88
2023-04-01T20:11:40.100Z,101269.13
2023-04-01T20:14:20.400Z,101268.53
2023-04-01T20:16:55.829Z,101289.78
2023-04-01T20:19:30.788Z,101273.22
2023-04-01T20:22:01.476Z,101289.63
2023-04-01T20:24:34.367Z,101296.59
2023-04-01T20:27:07.068Z,101292.50
2023-04-01T20:29:48.597Z,101300.63
2023-04-01T20:32:37.926Z,101309.88
2023-04-01T20:35:37.820Z,101309.66
2023-04-01T20:38:27.992Z,101314.69
2023-04-01T20:41:04.278Z,101316.00
2023-04-01T20:43:54.902Z,101314.84
2023-04-01T20:46:29.424Z,101314.31
2023-04-01T20:49:21.618Z,101320.53
2023-04-01T20:51:55.825Z,101329.44
2023-04-01T20:54:43.730Z,101323.25
2023-04-01T20:57:15.634Z,101336.09
2023-04-01T20:59:57.452Z,101337.72
2023-04-01T21:02:49.166Z,101331.16
2023-04-01T21:05:49.075Z,101352.06
2023-04-01T21:08:27.356Z,101349.72
2023-04-01T21:11:03.358Z,101350.47
2023-04-01T21:13:48.452Z,101361.19
2023-04-01T21:16:28.158Z,101368.94
2023-04-01T21:19:19.004Z,101365.03
2023-04-01T21:22:08.827Z,101369.31
2023-04-01T21:24:59.067Z,101371.31
2023-04-01T21:27:54.925Z,101373.97
2023-04-01T21:30:39.273Z,101383.91
2023-04-01T21:33:18.497Z,101374.66
2023-04-01T21:36:00.667Z,101388.38
2023-04-01T21:38:44.148Z,101393.69
2023-04-01T21:41:42.171Z,101401.66
2023-04-01T21:44:37.037Z,101401.41
2023-04-01T21:47:33.955Z,101405.25
2023-04-01T21:50:37.384Z,101416.13
2023-04-01T21:53:44.622Z,101415.25
2023-04-01T21:56:37.238Z,101433.44
2023-04-01T21:59:26.996Z,101424.59
2023-04-01T22:02:21.079Z,101433.16
2023-04-01T22:04:59.615Z,101444.75
2023-04-01T22:07:35.551Z,101443.38
2023-04-01T22:10:16.882Z,101449.72
2023-04-01T22:12:52.360Z,101440.41
2023-04-01T22:15:30.481Z,101451.16
2023-04-01T22:18:05.656Z,101451.50
2023-04-01T22:20:41.845Z,101453.63
2023-04-01T22:23:22.033Z,101448.63
2023-04-01T22:25:59.697Z,101457.63
2023-04-01T22:28:33.802Z,101459.19
2023-04-01T22:31:02.897Z,101466.94
2023-04-01T22:33:35.941Z,101471.50
2023-04-01T22:36:13.867Z,101472.94
2023-04-01T22:38:58.749Z,101470.72
2023-04-01T22:41:42.227Z,101469.66
2023-04-01T22:44:22.288Z,101474.31
2023-04-01T22:47:00.378Z,101477.81
2023-04-01T22:49:34.521Z,101489.16
2023-04-01T22:52:07.642Z,101490.59
2023-04-01T22:54:42.373Z,101490.41
2023-04-01T22:57:17.286Z,101488.22
2023-04-01T22:59:53.327Z,101496.66
2023-04-01T23:02:26.706Z,101504.38
2023-04-01T23:04:58.329Z,101505.22
2023-04-01T23:07:47.900Z,101512.63
2023-04-01T23:10:22.099Z,101522.44
2023-04-01T23:12:53.707Z,101513.09
2023-04-01T23:15:22.680Z,101516.97
2023-04-01T23:18:01.670Z,101523.75
2023-04-01T23:20:42.198Z,101518.97
2023-04-01T23:23:22.964Z,101528.53
2023-04-01T23:26:00.337Z,101525.72
2023-04-01T23:28:43.900Z,101531.91
2023-04-01T23:31:45.408Z,101537.63
2023-04-01T23:34:30.137Z,101542.78
2023-04-01T23:37:01.098Z,101553.09
2023-04-01T23:39:33.722Z,101557.84
2023-04-01T23:42:06.050Z,101562.16
2023-04-01T23:44:37.465Z,101563.53
2023-04-01T23:47:07.167Z,101560.91
2023-04-01T23:49:38.975Z,101563.00
2023-04-01T23:52:15.151Z,101565.97
2023-04-01T23:54:46.354Z,101569.78
2023-04-01T23:57:16.490Z,101574.50
2023-04-01T23:59:45.698Z,101568.09
